Time;durP1;ratioP1;P1;durP2;ratioP2;P2;SDS_P1;SDS_P2;PMS_P1;PMS_P2;Temp;Humidity;BMP_temperature;BMP_pressure;BME280_temperature;BME280_humidity;BME280_pressure;Samples;Min_cycle;Max_cycle;Signal;HPM_P1;HPM_P2
2021/12/25 00:00:48;;;;;;;;;;;;;;;1.79;96.42;100757.78;5003929;28;20332;-78
2021/12/25 00:03:15;;;;;;;;;;;;;;;1.74;95.86;100750.06;5032925;28;20437;-76
2021/12/25 00:05:40;;;;;;;;;;;;;;;1.77;95.06;100751.75;4999261;28;19929;-77
2021/12/25 00:08:06;;;;;;;;;;;;;;;1.76;95.71;100745.72;4994557;28;19922;-79
2021/12/25 00:10:32;;;;;;;;;;;;;;;1.76;95.98;100763.00;5001665;28;20045;-78
2021/12/25 00:12:58;;;;;;;;;;;;;;;1.69;95.64;100768.25;5009812;28;19918;-76
2021/12/25 00:15:23;;;;;;;;;;;;;;;1.59;95.68;100758.88;4998612;28;19918;-77
2021/12/25 00:17:48;;;;;;;;;;;;;;;1.67;95.65;100759.63;5002023;28;19967;-76
2021/12/25 00:20:13;;;;;;;;;;;;;;;1.67;95.17;100759.63;4995018;28;19922;-74
2021/12/25 00:22:39;;;;;;;;;;;;;;;1.65;95.20;100763.13;5003628;28;19925;-76
2021/12/25 00:25:05;;;;;;;;;;;;;;;1.54;95.53;100764.09;5031725;28;19918;-78
2021/12/25 00:35:17;;;;;;;;;;;;;;;1.51;95.86;100781.41;5004680;28;19921;-78
2021/12/25 00:37:42;;;;;;;;;;;;;;;1.57;95.50;100778.72;5037088;28;19917;-77
2021/12/25 00:40:08;;;;;;;;;;;;;;;1.59;95.23;100773.56;5003037;28;19929;-80
2021/12/25 00:42:33;;;;;;;;;;;;;;;1.65;94.86;100776.06;5029890;28;19918;-78
2021/12/25 00:44:58;;;;;;;;;;;;;;;1.60;95.46;100778.72;4999180;28;19917;-83
2021/12/25 00:47:24;;;;;;;;;;;;;;;1.57;95.56;100770.97;5007322;28;20279;-76
2021/12/25 00:49:49;;;;;;;;;;;;;;;1.58;95.12;100772.69;5004496;28;20237;-77
2021/12/25 00:52:15;;;;;;;;;;;;;;;1.52;95.46;100773.59;5015823;28;19924;-76
2021/12/25 00:54:40;;;;;;;;;;;;;;;1.48;95.93;100778.84;5013069;28;20052;-78
2021/12/25 00:57:06;;;;;;;;;;;;;;;1.47;95.44;100782.28;5019857;28;20333;-80
2021/12/25 00:59:31;;;;;;;;;;;;;;;1.55;95.30;100780.47;5024383;28;20053;-80
2021/12/25 01:01:58;;;;;;;;;;;;;;;1.42;95.18;100779.75;5012693;28;19999;-76
2021/12/25 01:04:23;;;;;;;;;;;;;;;1.46;95.47;100773.69;5012603;28;19976;-78
2021/12/25 01:06:49;;;;;;;;;;;;;;;1.47;96.20;100771.94;5004922;28;20367;-76
2021/12/25 01:09:14;;;;;;;;;;;;;;;1.47;95.72;100779.72;5010912;28;19928;-78
2021/12/25 01:11:42;;;;;;;;;;;;;;;1.45;95.94;100777.16;5009938;28;20380;-77
2021/12/25 01:14:19;;;;;;;;;;;;;;;1.43;95.77;100780.63;5004711;28;19917;-76
2021/12/25 01:27:56;;;;;;;;;;;;;;;1.23;94.65;100769.59;5025023;28;19918;-77
2021/12/25 01:49:00;;;;;;;;;;;;;;;1.25;94.79;100790.25;4997361;28;20012;-74
2021/12/25 01:51:25;;;;;;;;;;;;;;;1.18;95.17;100786.03;5005131;28;20004;-76
2021/12/25 01:53:51;;;;;;;;;;;;;;;1.17;95.59;100779.13;5003244;28;19922;-77
2021/12/25 01:56:16;;;;;;;;;;;;;;;1.16;95.51;100787.75;4997039;28;19940;-79
2021/12/25 01:58:41;;;;;;;;;;;;;;;1.11;95.22;100790.41;5006590;28;20482;-77
2021/12/25 02:01:08;;;;;;;;;;;;;;;1.04;95.68;100794.75;4998160;28;20390;-78
2021/12/25 02:03:36;;;;;;;;;;;;;;;1.10;96.04;100793.00;4999844;28;19922;-77
2021/12/25 02:06:02;;;;;;;;;;;;;;;1.08;95.69;100790.41;5004197;28;19918;-82
2021/12/25 02:08:27;;;;;;;;;;;;;;;1.05;96.04;100788.72;4997021;28;19921;-80
2021/12/25 02:10:53;;;;;;;;;;;;;;;1.00;95.58;100790.47;4996046;28;19983;-82
2021/12/25 02:13:19;;;;;;;;;;;;;;;0.99;95.24;100793.09;5002751;28;19926;-77
2021/12/25 02:15:48;;;;;;;;;;;;;;;0.95;95.42;100793.97;5000061;28;19922;-81
2021/12/25 02:20:49;;;;;;;;;;;;;;;0.94;95.82;100798.28;4993404;28;20401;-77
2021/12/25 02:23:29;;;;;;;;;;;;;;;0.85;95.88;100798.38;5007384;28;20011;-79
2021/12/25 02:25:56;;;;;;;;;;;;;;;0.80;95.58;100798.41;4995929;28;19944;-79
2021/12/25 02:28:22;;;;;;;;;;;;;;;0.84;96.44;100799.22;4998800;28;19957;-77
2021/12/25 02:30:49;;;;;;;;;;;;;;;0.79;96.42;100798.41;5002999;28;20308;-81
2021/12/25 02:33:16;;;;;;;;;;;;;;;0.68;95.88;100786.41;5005737;28;19933;-79
2021/12/25 02:35:42;;;;;;;;;;;;;;;0.74;95.94;100801.88;5030502;28;20263;-77
2021/12/25 02:38:07;;;;;;;;;;;;;;;0.79;95.69;100806.16;4997069;28;19918;-80
2021/12/25 02:40:33;;;;;;;;;;;;;;;0.65;96.15;100812.28;4999839;28;19936;-79
2021/12/25 02:42:58;;;;;;;;;;;;;;;0.62;95.82;100812.31;5001730;28;19923;-79
2021/12/25 02:45:24;;;;;;;;;;;;;;;0.65;95.34;100816.59;5005391;28;19929;-80
2021/12/25 02:47:51;;;;;;;;;;;;;;;0.60;95.50;100814.03;4997525;28;20371;-80
2021/12/25 02:50:32;;;;;;;;;;;;;;;0.53;95.17;100809.78;5004934;28;19922;-80
2021/12/25 02:52:59;;;;;;;;;;;;;;;0.44;95.89;100814.09;5005005;28;19925;-79
2021/12/25 02:55:25;;;;;;;;;;;;;;;0.48;96.28;100811.50;5009410;28;19925;-80
2021/12/25 02:57:52;;;;;;;;;;;;;;;0.44;96.45;100806.34;5003756;28;19953;-81
2021/12/25 03:00:32;;;;;;;;;;;;;;;0.44;95.77;100803.78;4998217;28;19917;-80
2021/12/25 03:03:00;;;;;;;;;;;;;;;0.46;95.45;100799.47;4999288;28;19953;-79
2021/12/25 03:05:25;;;;;;;;;;;;;;;0.40;96.27;100796.91;5003058;28;20495;-79
2021/12/25 03:07:51;;;;;;;;;;;;;;;0.42;95.96;100792.59;4992436;28;19957;-81
2021/12/25 03:10:16;;;;;;;;;;;;;;;0.32;95.44;100801.28;4991580;28;20425;-78
2021/12/25 03:18:03;;;;;;;;;;;;;;;0.20;95.38;100798.75;4994436;28;19918;-79
2021/12/25 03:20:29;;;;;;;;;;;;;;;0.17;95.73;100802.19;5005899;28;19959;-79
2021/12/25 03:22:54;;;;;;;;;;;;;;;0.20;95.29;100803.91;5008980;28;19925;-79
2021/12/25 03:25:19;;;;;;;;;;;;;;;0.23;94.28;100797.00;4989874;28;20363;-80
2021/12/25 03:27:46;;;;;;;;;;;;;;;0.18;94.12;100792.72;4998087;28;20477;-80
2021/12/25 03:30:15;;;;;;;;;;;;;;;0.18;93.92;100803.91;4995050;28;19924;-80
2021/12/25 03:32:40;;;;;;;;;;;;;;;0.16;93.87;100805.66;5003910;28;20024;-81
2021/12/25 03:35:05;;;;;;;;;;;;;;;0.20;94.16;100811.66;4991956;28;20595;-81
2021/12/25 03:37:31;;;;;;;;;;;;;;;0.28;94.50;100817.66;4998003;28;20543;-81
2021/12/25 03:39:56;;;;;;;;;;;;;;;0.24;94.83;100816.81;5004809;28;19918;-82
2021/12/25 03:42:21;;;;;;;;;;;;;;;0.22;93.61;100828.88;4997597;28;20005;-81
2021/12/25 03:44:46;;;;;;;;;;;;;;;0.13;94.03;100829.75;5008751;28;20320;-81
2021/12/25 03:58:00;;;;;;;;;;;;;;;0.02;91.81;100831.53;5004716;28;19921;-79
2021/12/25 04:00:30;;;;;;;;;;;;;;;-0.02;92.66;100838.44;5000446;28;19928;-79
2021/12/25 04:03:00;;;;;;;;;;;;;;;-0.13;92.66;100852.25;5005719;28;20041;-78
2021/12/25 04:05:29;;;;;;;;;;;;;;;-0.12;93.63;100853.97;4995701;28;19922;-80
2021/12/25 04:10:39;;;;;;;;;;;;;;;-0.09;91.85;100856.53;5009114;28;19918;-79
2021/12/25 04:13:07;;;;;;;;;;;;;;;-0.24;90.86;100858.28;5011985;28;19918;-80
2021/12/25 04:15:32;;;;;;;;;;;;;;;-0.27;91.76;100862.56;5002355;28;20286;-74
2021/12/25 04:17:58;;;;;;;;;;;;;;;-0.18;92.19;100865.16;5001062;28;20435;-72
2021/12/25 04:20:23;;;;;;;;;;;;;;;-0.18;91.29;100865.16;4997366;28;19999;-71
2021/12/25 04:22:57;;;;;;;;;;;;;;;-0.42;91.95;100873.78;5002582;28;20339;-73
2021/12/25 04:25:27;;;;;;;;;;;;;;;-0.38;92.33;100875.50;5003909;28;19922;-72
2021/12/25 04:27:53;;;;;;;;;;;;;;;-0.27;91.61;100884.13;5006269;28;20000;-73
2021/12/25 04:30:29;;;;;;;;;;;;;;;-0.26;90.71;100872.94;4986397;28;19928;-73
2021/12/25 05:04:54;;;;;;;;;;;;;;;-0.96;90.26;100903.00;5002625;28;20366;-74
2021/12/25 05:07:19;;;;;;;;;;;;;;;-0.99;90.59;100900.44;5019348;28;19924;-74
2021/12/25 05:09:45;;;;;;;;;;;;;;;-1.02;89.89;100903.00;5010914;28;19918;-73
2021/12/25 05:12:10;;;;;;;;;;;;;;;-1.05;90.28;100910.72;4999191;28;19928;-76
2021/12/25 05:14:35;;;;;;;;;;;;;;;-1.07;90.52;100912.44;4992113;28;19918;-74
2021/12/25 05:17:00;;;;;;;;;;;;;;;-1.13;89.37;100914.16;4999874;28;19934;-74
2021/12/25 05:19:26;;;;;;;;;;;;;;;-1.11;89.80;100911.56;5007338;28;19944;-74
2021/12/25 05:21:51;;;;;;;;;;;;;;;-1.15;90.13;100915.00;5003671;28;19933;-74
2021/12/25 05:24:17;;;;;;;;;;;;;;;-1.16;89.98;100918.47;4994057;28;19921;-74
2021/12/25 05:26:42;;;;;;;;;;;;;;;-1.18;89.93;100931.31;5004544;28;19940;-74
2021/12/25 05:29:08;;;;;;;;;;;;;;;-1.34;89.67;100924.41;5003097;28;19929;-74
2021/12/25 05:31:34;;;;;;;;;;;;;;;-1.38;89.97;100928.69;5008380;28;19921;-74
2021/12/25 05:34:00;;;;;;;;;;;;;;;-1.42;89.58;100926.94;4998771;28;20008;-74
2021/12/25 05:36:27;;;;;;;;;;;;;;;-1.43;90.09;100940.69;5008338;28;20008;-74
2021/12/25 05:38:57;;;;;;;;;;;;;;;-1.41;89.79;100931.25;5005716;28;20319;-73
2021/12/25 05:41:23;;;;;;;;;;;;;;;-1.51;89.99;100926.91;5004832;28;19922;-74
2021/12/25 05:43:49;;;;;;;;;;;;;;;-1.51;90.49;100926.91;5011926;28;20386;-73
2021/12/25 05:46:14;;;;;;;;;;;;;;;-1.59;90.37;100939.75;4997431;28;19922;-74
2021/12/25 05:48:39;;;;;;;;;;;;;;;-1.68;89.87;100927.69;5003088;28;19917;-74
2021/12/25 05:51:05;;;;;;;;;;;;;;;-1.71;90.55;100930.25;4993989;28;20569;-74
2021/12/25 05:53:31;;;;;;;;;;;;;;;-1.76;90.07;100931.94;5005488;28;19922;-73
2021/12/25 05:55:56;;;;;;;;;;;;;;;-1.83;89.83;100938.75;5004295;28;19976;-76
2021/12/25 05:58:21;;;;;;;;;;;;;;;-1.82;90.94;100937.91;5003394;28;20024;-75
2021/12/25 06:00:47;;;;;;;;;;;;;;;-1.81;90.09;100947.38;5002333;28;20635;-74
2021/12/25 06:03:12;;;;;;;;;;;;;;;-1.88;90.75;100943.88;4999262;28;19921;-74
2021/12/25 06:05:37;;;;;;;;;;;;;;;-1.91;89.98;100949.00;5038038;28;20321;-76
2021/12/25 06:08:03;;;;;;;;;;;;;;;-1.94;90.33;100955.84;5000507;28;19922;-74
2021/12/25 06:10:28;;;;;;;;;;;;;;;-1.99;91.00;100947.25;5001739;28;19928;-73
2021/12/25 06:12:55;;;;;;;;;;;;;;;-2.03;90.00;100954.94;5004731;28;19917;-74
2021/12/25 06:15:21;;;;;;;;;;;;;;;-1.99;89.80;100960.13;4998512;28;19930;-81
2021/12/25 06:17:47;;;;;;;;;;;;;;;-2.00;89.84;100958.41;5007368;28;20443;-81
2021/12/25 06:20:13;;;;;;;;;;;;;;;-2.05;90.23;100951.50;5010889;28;19925;-81
2021/12/25 06:22:38;;;;;;;;;;;;;;;-2.07;89.16;100954.94;4995337;28;19966;-73
2021/12/25 06:25:04;;;;;;;;;;;;;;;-2.13;89.85;100966.03;5008977;28;20409;-74
2021/12/25 06:27:29;;;;;;;;;;;;;;;-2.15;90.26;100965.16;5007858;28;20423;-77
2021/12/25 06:29:55;;;;;;;;;;;;;;;-2.10;89.62;100967.75;5008141;28;19928;-72
2021/12/25 06:32:20;;;;;;;;;;;;;;;-2.16;89.91;100971.16;4990187;28;19926;-73
2021/12/25 06:34:45;;;;;;;;;;;;;;;-2.18;89.73;100972.84;5000035;28;19937;-74
2021/12/25 06:37:11;;;;;;;;;;;;;;;-2.22;89.30;100971.13;4999407;28;19929;-73
2021/12/25 06:39:39;;;;;;;;;;;;;;;-2.25;90.68;100978.81;5003842;28;19917;-76
2021/12/25 06:42:05;;;;;;;;;;;;;;;-2.28;89.31;100966.78;4999630;28;19918;-75
2021/12/25 06:44:30;;;;;;;;;;;;;;;-2.26;89.59;100979.66;5001954;28;19925;-75
2021/12/25 06:46:56;;;;;;;;;;;;;;;-2.27;88.91;100963.38;5006271;28;19918;-76
2021/12/25 06:49:21;;;;;;;;;;;;;;;-2.34;87.54;100975.31;5004218;28;19921;-78
2021/12/25 06:51:47;;;;;;;;;;;;;;;-2.39;86.61;100966.69;5008096;28;19929;-74
2021/12/25 06:54:13;;;;;;;;;;;;;;;-2.42;86.71;100969.22;5002639;28;19940;-75
2021/12/25 06:56:38;;;;;;;;;;;;;;;-2.44;86.57;100975.19;4996858;28;20012;-76
2021/12/25 06:59:03;;;;;;;;;;;;;;;-2.43;86.58;100970.09;5010016;28;19964;-77
2021/12/25 07:01:29;;;;;;;;;;;;;;;-2.48;87.10;100971.75;5008630;28;20051;-73
2021/12/25 07:03:54;;;;;;;;;;;;;;;-2.49;87.18;100975.16;4998318;28;20387;-74
2021/12/25 07:06:21;;;;;;;;;;;;;;;-2.50;86.46;100978.59;4996854;28;19918;-72
2021/12/25 07:08:46;;;;;;;;;;;;;;;-2.57;86.13;100985.38;5002947;28;19922;-73
2021/12/25 07:11:12;;;;;;;;;;;;;;;-2.57;85.97;100971.66;4995367;28;19921;-76
2021/12/25 07:13:37;;;;;;;;;;;;;;;-2.64;85.36;100983.59;5002986;28;19995;-75
2021/12/25 07:16:02;;;;;;;;;;;;;;;-2.68;85.50;100979.25;5008266;28;19968;-73
2021/12/25 07:18:28;;;;;;;;;;;;;;;-2.67;86.14;100992.16;4994315;28;19972;-74
2021/12/25 07:20:53;;;;;;;;;;;;;;;-2.74;85.24;100987.78;5003462;28;19918;-72
2021/12/25 07:23:18;;;;;;;;;;;;;;;-2.74;85.48;100989.50;4996465;28;19922;-73
2021/12/25 07:25:44;;;;;;;;;;;;;;;-2.75;85.04;100992.91;5020738;28;19914;-73
2021/12/25 07:28:09;;;;;;;;;;;;;;;-2.85;84.44;100992.81;5002464;28;19917;-73
2021/12/25 07:30:35;;;;;;;;;;;;;;;-2.83;84.75;100997.97;5001159;28;19926;-72
2021/12/25 07:33:00;;;;;;;;;;;;;;;-2.85;85.62;100999.66;5001618;28;20016;-75
2021/12/25 07:35:26;;;;;;;;;;;;;;;-2.84;85.63;101007.41;4999414;28;19926;-72
2021/12/25 07:37:52;;;;;;;;;;;;;;;-2.89;85.21;101000.47;5006454;28;19943;-75
2021/12/25 07:40:17;;;;;;;;;;;;;;;-2.84;84.43;101006.53;5000829;28;20410;-75
2021/12/25 07:42:43;;;;;;;;;;;;;;;-2.88;84.46;101002.22;5000250;28;19967;-73
2021/12/25 07:45:08;;;;;;;;;;;;;;;-2.86;84.79;101001.38;4998630;28;19925;-72
2021/12/25 07:47:35;;;;;;;;;;;;;;;-2.95;86.12;101020.13;5003466;28;19928;-73
2021/12/25 07:50:16;;;;;;;;;;;;;;;-2.94;86.44;101026.13;4995462;28;19918;-76
2021/12/25 07:52:41;;;;;;;;;;;;;;;-3.01;86.43;101017.50;5004109;28;19925;-72
2021/12/25 07:55:08;;;;;;;;;;;;;;;-2.94;87.00;101028.72;5003657;28;20238;-75
2021/12/25 07:57:33;;;;;;;;;;;;;;;-2.93;86.84;101037.28;4995115;28;19933;-74
2021/12/25 07:59:58;;;;;;;;;;;;;;;-2.95;86.84;101032.13;4999044;28;19917;-74
2021/12/25 08:02:24;;;;;;;;;;;;;;;-2.93;87.05;101027.88;5000929;28;19925;-81
2021/12/25 08:04:49;;;;;;;;;;;;;;;-2.99;87.40;101044.09;5024799;28;19925;-80
2021/12/25 08:07:14;;;;;;;;;;;;;;;-2.98;86.98;101032.97;4997388;28;19918;-80
2021/12/25 08:09:42;;;;;;;;;;;;;;;-2.94;87.07;101031.28;5001076;28;19967;-80
2021/12/25 08:12:07;;;;;;;;;;;;;;;-2.95;87.30;101038.13;4996780;28;19968;-79
2021/12/25 08:14:33;;;;;;;;;;;;;;;-2.93;86.64;101037.28;4991674;28;19922;-79
2021/12/25 08:16:59;;;;;;;;;;;;;;;-2.86;85.90;101028.78;5001331;28;20374;-78
2021/12/25 08:19:24;;;;;;;;;;;;;;;-2.83;85.85;101036.53;5005688;28;20423;-80
2021/12/25 08:21:50;;;;;;;;;;;;;;;-2.78;84.65;101034.00;5000369;28;19918;-78
2021/12/25 08:24:16;;;;;;;;;;;;;;;-2.80;85.13;101034.84;5003141;28;19945;-76
2021/12/25 08:26:42;;;;;;;;;;;;;;;-2.70;84.60;101040.97;5004050;28;19932;-77
2021/12/25 08:29:07;;;;;;;;;;;;;;;-2.68;84.19;101039.28;5003739;28;20004;-78
2021/12/25 08:31:32;;;;;;;;;;;;;;;-2.67;84.19;101047.84;5004233;28;20037;-79
2021/12/25 08:33:58;;;;;;;;;;;;;;;-2.64;83.13;101041.03;5003353;28;19933;-78
2021/12/25 08:36:23;;;;;;;;;;;;;;;-2.60;83.05;101035.94;5002309;28;19922;-79
2021/12/25 08:38:48;;;;;;;;;;;;;;;-2.56;81.91;101043.69;5001431;28;19944;-79
2021/12/25 08:41:14;;;;;;;;;;;;;;;-2.61;82.12;101045.38;4999365;28;19922;-79
2021/12/25 08:43:46;;;;;;;;;;;;;;;-2.64;82.20;101048.75;5007600;28;19917;-79
2021/12/25 08:46:17;;;;;;;;;;;;;;;-2.61;82.63;101062.50;4995537;28;20401;-77
2021/12/25 08:48:42;;;;;;;;;;;;;;;-2.56;80.21;101046.25;5012401;28;19917;-77
2021/12/25 08:51:08;;;;;;;;;;;;;;;-2.58;80.96;101052.25;5007748;28;19932;-78
2021/12/25 08:53:33;;;;;;;;;;;;;;;-2.52;79.90;101057.44;5009390;28;19925;-77
2021/12/25 08:55:59;;;;;;;;;;;;;;;-2.50;80.81;101051.50;5007597;28;19957;-77
2021/12/25 08:58:26;;;;;;;;;;;;;;;-2.58;80.48;101057.38;5003779;28;19979;-77
2021/12/25 09:00:56;;;;;;;;;;;;;;;-2.48;79.49;101061.78;5003695;28;19926;-78
2021/12/25 09:03:22;;;;;;;;;;;;;;;-2.44;80.15;101060.97;5002519;28;19929;-78
2021/12/25 09:05:48;;;;;;;;;;;;;;;-2.43;78.97;101057.56;5006232;28;19925;-79
2021/12/25 09:08:13;;;;;;;;;;;;;;;-2.44;78.68;101058.41;4999937;28;19918;-78
2021/12/25 09:10:38;;;;;;;;;;;;;;;-2.43;79.21;101056.69;5005293;28;19918;-78
2021/12/25 09:13:04;;;;;;;;;;;;;;;-2.44;79.15;101068.69;5000933;28;19918;-80
2021/12/25 09:15:30;;;;;;;;;;;;;;;-2.43;78.30;101066.97;5011627;28;19921;-80
2021/12/25 09:17:55;;;;;;;;;;;;;;;-2.44;79.11;101063.56;5008997;28;19964;-78
2021/12/25 09:20:21;;;;;;;;;;;;;;;-2.37;78.37;101062.75;5009257;28;19925;-80
2021/12/25 09:22:47;;;;;;;;;;;;;;;-2.37;77.91;101056.75;5005695;28;20025;-82
2021/12/25 09:25:12;;;;;;;;;;;;;;;-2.33;76.55;101048.22;5001733;28;20004;-82
2021/12/25 09:27:38;;;;;;;;;;;;;;;-2.38;75.76;101047.31;5006663;28;19918;-80
2021/12/25 09:30:04;;;;;;;;;;;;;;;-2.36;75.35;101043.03;5004762;28;19924;-82
2021/12/25 09:32:29;;;;;;;;;;;;;;;-2.32;74.23;101049.94;5009019;28;19940;-83
2021/12/25 09:34:55;;;;;;;;;;;;;;;-2.27;72.93;101038.00;4999433;28;20544;-81
2021/12/25 09:37:20;;;;;;;;;;;;;;;-2.35;72.72;101037.91;5005129;28;20282;-82
2021/12/25 09:39:45;;;;;;;;;;;;;;;-2.35;72.79;101040.50;5009505;28;19921;-78
2021/12/25 09:42:11;;;;;;;;;;;;;;;-2.32;73.36;101055.09;4993794;28;19928;-76
2021/12/25 09:44:37;;;;;;;;;;;;;;;-2.36;71.08;101049.06;5013288;28;19925;-76
2021/12/25 09:47:03;;;;;;;;;;;;;;;-2.24;70.46;101037.16;5008054;28;19921;-75
2021/12/25 09:49:28;;;;;;;;;;;;;;;-2.25;70.56;101030.28;5008582;28;20011;-78
2021/12/25 09:51:53;;;;;;;;;;;;;;;-2.19;70.49;101044.06;5009666;28;20047;-78
2021/12/25 09:54:19;;;;;;;;;;;;;;;-2.26;68.57;101041.41;4992839;28;19975;-77
2021/12/25 09:56:46;;;;;;;;;;;;;;;-2.33;66.99;101027.63;5010844;28;19933;-78
2021/12/25 09:59:11;;;;;;;;;;;;;;;-2.34;68.03;101034.50;5005527;28;19926;-79
2021/12/25 10:01:37;;;;;;;;;;;;;;;-2.22;67.45;101040.59;4995419;28;20425;-81
2021/12/25 10:04:03;;;;;;;;;;;;;;;-2.28;67.85;101033.69;5006455;28;19921;-82
2021/12/25 10:06:30;;;;;;;;;;;;;;;-2.22;67.59;101040.59;5002171;28;20481;-80
2021/12/25 10:08:55;;;;;;;;;;;;;;;-2.19;66.12;101038.91;5017647;28;19924;-80
2021/12/25 10:11:20;;;;;;;;;;;;;;;-2.15;65.58;101042.38;4995476;28;19921;-81
2021/12/25 10:13:46;;;;;;;;;;;;;;;-1.30;63.61;101036.94;4998408;28;19925;-81
2021/12/25 10:16:27;;;;;;;;;;;;;;;-0.66;63.16;101023.47;5002781;28;19921;-81
2021/12/25 10:18:53;;;;;;;;;;;;;;;-0.18;60.38;101015.78;4996512;28;19953;-80
2021/12/25 10:21:34;;;;;;;;;;;;;;;-0.27;59.24;101026.09;5040064;28;19945;-80
2021/12/25 10:24:18;;;;;;;;;;;;;;;-0.17;57.08;101001.16;4999825;28;19964;-80
2021/12/25 10:26:45;;;;;;;;;;;;;;;-0.25;57.66;101018.34;5006803;28;20000;-78
2021/12/25 10:29:25;;;;;;;;;;;;;;;-0.07;57.10;101018.38;4998300;28;19976;-82
2021/12/25 10:31:53;;;;;;;;;;;;;;;-0.03;56.04;101019.25;4999973;28;19929;-82
2021/12/25 10:34:20;;;;;;;;;;;;;;;0.08;57.37;101021.81;5001104;28;19926;-81
2021/12/25 10:36:46;;;;;;;;;;;;;;;0.60;55.45;101023.44;5004602;28;19917;-82
2021/12/25 10:39:11;;;;;;;;;;;;;;;0.22;56.58;101017.50;5001106;28;19961;-82
2021/12/25 10:41:39;;;;;;;;;;;;;;;-0.02;56.49;101020.97;5012388;28;20008;-81
2021/12/25 10:44:20;;;;;;;;;;;;;;;-0.65;58.93;101024.31;4996839;28;19918;-82
2021/12/25 10:46:46;;;;;;;;;;;;;;;-1.39;60.43;101035.22;5004636;28;20333;-81
2021/12/25 10:49:12;;;;;;;;;;;;;;;-1.69;60.01;101030.72;5025717;28;19979;-82
2021/12/25 10:51:38;;;;;;;;;;;;;;;-1.90;60.97;101037.44;5005067;28;20012;-81
2021/12/25 10:54:03;;;;;;;;;;;;;;;-1.90;60.80;101030.56;5001068;28;20034;-81
2021/12/25 10:56:44;;;;;;;;;;;;;;;-2.00;61.82;101036.50;5001026;28;20375;-83
2021/12/25 10:59:11;;;;;;;;;;;;;;;-1.99;61.60;101040.78;4992044;28;19941;-83
2021/12/25 11:01:52;;;;;;;;;;;;;;;-1.99;60.86;101021.91;5031136;28;20485;-82
2021/12/25 11:04:35;;;;;;;;;;;;;;;-1.92;61.46;101028.84;5006758;28;20490;-82
2021/12/25 11:07:10;;;;;;;;;;;;;;;-1.87;62.75;101034.88;4996922;28;19918;-83
2021/12/25 11:09:36;;;;;;;;;;;;;;;-1.80;63.21;101039.22;5000301;28;19922;-83
2021/12/25 11:12:16;;;;;;;;;;;;;;;-1.87;61.80;101028.00;5009422;28;20412;-84
2021/12/25 11:14:42;;;;;;;;;;;;;;;-1.84;62.23;101028.91;5000895;28;19926;-83
2021/12/25 11:17:25;;;;;;;;;;;;;;;-1.77;62.38;101021.22;4997520;28;19918;-82
2021/12/25 11:22:46;;;;;;;;;;;;;;;-1.81;60.11;101014.31;5004803;28;19925;-74
2021/12/25 11:25:11;;;;;;;;;;;;;;;-1.81;59.96;101019.47;5001071;28;20168;-72
2021/12/25 11:27:37;;;;;;;;;;;;;;;-1.78;61.11;101024.66;4986694;28;19922;-73
2021/12/25 11:30:03;;;;;;;;;;;;;;;-1.77;61.14;101026.38;4984108;28;19922;-72
2021/12/25 11:32:28;;;;;;;;;;;;;;;-1.79;59.61;101020.34;5002471;28;19921;-72
2021/12/25 11:34:56;;;;;;;;;;;;;;;-1.75;59.06;101027.22;5033548;28;19932;-74
2021/12/25 11:37:21;;;;;;;;;;;;;;;-1.73;60.12;101024.69;5019869;28;21676;-72
2021/12/25 11:39:52;;;;;;;;;;;;;;;-1.66;60.32;101021.28;5032796;28;19933;-74
2021/12/25 11:42:17;;;;;;;;;;;;;;;-1.75;60.07;101027.22;5007306;28;20038;-72
2021/12/25 11:44:47;;;;;;;;;;;;;;;-1.71;60.24;101026.41;5003922;28;20391;-75
2021/12/25 11:47:28;;;;;;;;;;;;;;;-1.76;59.63;101035.81;4998426;28;19921;-74
2021/12/25 11:49:54;;;;;;;;;;;;;;;-1.74;59.36;101030.69;5028245;28;19918;-76
2021/12/25 11:52:23;;;;;;;;;;;;;;;-1.81;58.75;101023.75;5005241;28;19922;-73
2021/12/25 11:57:47;;;;;;;;;;;;;;;-1.75;59.95;101031.53;4985119;28;19979;-77
2021/12/25 12:00:12;;;;;;;;;;;;;;;-1.73;60.32;101048.72;4973424;28;19983;-76
2021/12/25 12:02:39;;;;;;;;;;;;;;;-1.78;59.37;101024.66;4985272;28;19925;-73
2021/12/25 12:05:19;;;;;;;;;;;;;;;-1.67;58.51;101035.00;5016464;28;19936;-74
2021/12/25 12:08:03;;;;;;;;;;;;;;;-1.65;59.51;101033.31;5002185;28;19932;-74
2021/12/25 12:10:43;;;;;;;;;;;;;;;-1.77;57.52;101031.53;5005042;28;19917;-76
2021/12/25 12:13:24;;;;;;;;;;;;;;;-1.68;58.87;101045.31;4975858;28;20431;-74
2021/12/25 12:16:05;;;;;;;;;;;;;;;-1.62;58.29;101050.50;4987780;28;19932;-76
2021/12/25 12:18:32;;;;;;;;;;;;;;;-1.58;58.18;101054.84;4998889;28;19921;-71
2021/12/25 12:21:05;;;;;;;;;;;;;;;-1.76;58.86;101060.72;5015026;28;19984;-74
2021/12/25 12:26:13;;;;;;;;;;;;;;;-1.65;58.94;101053.09;5004436;28;19922;-73
2021/12/25 12:28:54;;;;;;;;;;;;;;;-1.69;58.23;101056.47;5002509;28;20413;-73
2021/12/25 12:31:35;;;;;;;;;;;;;;;-1.72;57.53;101063.31;4985285;28;20653;-73
2021/12/25 12:34:00;;;;;;;;;;;;;;;-1.58;57.72;101070.28;4997303;28;20395;-74
2021/12/25 12:36:27;;;;;;;;;;;;;;;-1.65;58.00;101065.97;4982087;28;19957;-74
2021/12/25 12:38:58;;;;;;;;;;;;;;;-1.60;58.95;101069.41;4985756;28;19922;-73
2021/12/25 12:41:42;;;;;;;;;;;;;;;-1.61;58.71;101065.09;5018218;28;19929;-74
2021/12/25 12:44:23;;;;;;;;;;;;;;;-1.64;58.46;101073.69;5038260;28;19918;-72
2021/12/25 12:46:48;;;;;;;;;;;;;;;-1.62;59.50;101076.25;5008776;28;19921;-74
2021/12/25 12:49:29;;;;;;;;;;;;;;;-1.57;59.73;101075.44;5004771;28;19929;-73
2021/12/25 12:52:11;;;;;;;;;;;;;;;-1.72;59.61;101070.19;4999682;28;19940;-76
2021/12/25 12:54:51;;;;;;;;;;;;;;;-1.70;58.93;101065.91;5009346;28;20448;-72
2021/12/25 12:57:18;;;;;;;;;;;;;;;-1.76;60.46;101066.72;5003537;28;19968;-74
2021/12/25 12:59:45;;;;;;;;;;;;;;;-1.71;59.46;101075.34;5006405;28;19942;-72
2021/12/25 13:02:11;;;;;;;;;;;;;;;-1.75;59.33;101062.44;4986085;28;20041;-74
2021/12/25 13:04:52;;;;;;;;;;;;;;;-1.85;58.49;101058.91;4987740;28;20952;-73
2021/12/25 13:07:20;;;;;;;;;;;;;;;-1.82;58.76;101064.09;5006968;28;20313;-78
2021/12/25 13:12:37;;;;;;;;;;;;;;;-1.85;58.73;101060.66;5006938;28;19929;-73
2021/12/25 13:15:05;;;;;;;;;;;;;;;-1.79;59.44;101074.44;5001236;28;19952;-74
2021/12/25 13:17:30;;;;;;;;;;;;;;;-1.80;61.31;101072.72;5004719;28;19921;-74
2021/12/25 13:19:56;;;;;;;;;;;;;;;-1.86;59.94;101075.22;5010310;28;20367;-74
2021/12/25 13:22:21;;;;;;;;;;;;;;;-1.80;59.82;101074.41;5003489;28;19929;-73
2021/12/25 13:24:52;;;;;;;;;;;;;;;-1.74;58.94;101072.75;4997038;28;19918;-73
2021/12/25 13:27:18;;;;;;;;;;;;;;;-1.69;58.33;101067.63;4993920;28;19926;-74
2021/12/25 13:29:43;;;;;;;;;;;;;;;-1.76;58.55;101068.44;5001164;28;20486;-73
2021/12/25 13:32:08;;;;;;;;;;;;;;;-1.71;60.04;101080.50;4997673;28;19928;-73
2021/12/25 13:34:36;;;;;;;;;;;;;;;-1.70;57.99;101078.78;4994563;28;19929;-75
2021/12/25 13:37:03;;;;;;;;;;;;;;;-1.71;58.26;101079.66;4999664;28;19928;-76
2021/12/25 13:39:32;;;;;;;;;;;;;;;-1.68;57.27;101060.78;5042824;28;19956;-75
2021/12/25 13:42:12;;;;;;;;;;;;;;;-1.72;57.39;101060.75;5021959;28;20450;-75
2021/12/25 13:47:38;;;;;;;;;;;;;;;-1.69;58.81;101057.31;4986735;28;20394;-75
2021/12/25 13:50:05;;;;;;;;;;;;;;;-1.79;58.48;101074.44;4993944;28;19991;-74
2021/12/25 13:55:15;;;;;;;;;;;;;;;-1.73;58.64;101061.59;4990477;28;19922;-76
2021/12/25 13:57:56;;;;;;;;;;;;;;;-1.81;59.98;101073.56;5004911;28;20009;-75
2021/12/25 14:00:37;;;;;;;;;;;;;;;-1.75;59.23;101080.47;4997318;28;19943;-74
2021/12/25 14:03:04;;;;;;;;;;;;;;;-1.73;60.28;101077.03;5004602;28;19925;-75
2021/12/25 14:05:31;;;;;;;;;;;;;;;-1.80;58.95;101074.41;5012313;28;19972;-75
2021/12/25 14:07:57;;;;;;;;;;;;;;;-1.77;59.40;101065.03;5009774;28;20290;-75
2021/12/25 14:10:24;;;;;;;;;;;;;;;-1.77;58.60;101065.03;5007154;28;19940;-75
2021/12/25 14:12:50;;;;;;;;;;;;;;;-1.84;58.97;101065.78;5013556;28;19925;-76
2021/12/25 14:15:17;;;;;;;;;;;;;;;-1.83;60.22;101062.38;5008525;28;19925;-80
2021/12/25 14:17:43;;;;;;;;;;;;;;;-1.78;60.21;101058.13;5008002;28;19925;-83
2021/12/25 14:20:24;;;;;;;;;;;;;;;-1.81;60.56;101063.25;5001965;28;19926;-83
2021/12/25 14:23:07;;;;;;;;;;;;;;;-1.78;60.25;101065.88;5020001;28;19918;-83
2021/12/25 14:25:34;;;;;;;;;;;;;;;-1.88;60.50;101057.19;5036455;28;19918;-85
2021/12/25 14:28:16;;;;;;;;;;;;;;;-1.91;61.80;101066.59;5040242;28;19917;-84